sensor_id;sensor_type;location;lat;lon;timestamp;P1;durP1;ratioP1;P2;durP2;ratioP2
7215;SDS011;3649;48.798;9.798;2022-07-29T00:02:24;6.43;;;5.03;;
7215;SDS011;3649;48.798;9.798;2022-07-29T00:04:51;6.23;;;5.50;;
7215;SDS011;3649;48.798;9.798;2022-07-29T00:07:19;5.30;;;4.90;;
7215;SDS011;3649;48.798;9.798;2022-07-29T00:09:46;4.77;;;4.20;;
7215;SDS011;3649;48.798;9.798;2022-07-29T00:12:18;4.60;;;4.20;;
7215;SDS011;3649;48.798;9.798;2022-07-29T00:14:51;5.23;;;4.30;;
7215;SDS011;3649;48.798;9.798;2022-07-29T00:17:21;5.57;;;5.10;;
7215;SDS011;3649;48.798;9.798;2022-07-29T00:19:52;4.77;;;4.33;;
7215;SDS011;3649;48.798;9.798;2022-07-29T00:22:19;7.67;;;4.50;;
7215;SDS011;3649;48.798;9.798;2022-07-29T00:24:49;5.10;;;4.60;;
7215;SDS011;3649;48.798;9.798;2022-07-29T00:27:16;6.03;;;4.53;;
7215;SDS011;3649;48.798;9.798;2022-07-29T00:29:44;4.40;;;4.00;;
7215;SDS011;3649;48.798;9.798;2022-07-29T00:32:11;5.60;;;4.70;;
7215;SDS011;3649;48.798;9.798;2022-07-29T00:34:37;5.00;;;4.13;;
7215;SDS011;3649;48.798;9.798;2022-07-29T00:37:23;5.47;;;4.97;;
7215;SDS011;3649;48.798;9.798;2022-07-29T00:39:50;4.60;;;4.20;;
7215;SDS011;3649;48.798;9.798;2022-07-29T00:42:17;5.80;;;5.07;;
7215;SDS011;3649;48.798;9.798;2022-07-29T00:44:44;6.70;;;4.67;;
7215;SDS011;3649;48.798;9.798;2022-07-29T00:47:11;4.87;;;4.47;;
7215;SDS011;3649;48.798;9.798;2022-07-29T00:49:39;6.93;;;4.80;;
7215;SDS011;3649;48.798;9.798;2022-07-29T00:52:07;6.47;;;4.33;;
7215;SDS011;3649;48.798;9.798;2022-07-29T00:54:35;4.70;;;4.30;;
7215;SDS011;3649;48.798;9.798;2022-07-29T00:57:09;4.57;;;4.17;;
7215;SDS011;3649;48.798;9.798;2022-07-29T00:59:37;6.37;;;4.07;;
7215;SDS011;3649;48.798;9.798;2022-07-29T01:02:03;4.27;;;3.87;;
7215;SDS011;3649;48.798;9.798;2022-07-29T01:04:31;5.07;;;4.57;;
7215;SDS011;3649;48.798;9.798;2022-07-29T01:06:59;4.40;;;4.10;;
7215;SDS011;3649;48.798;9.798;2022-07-29T01:09:28;6.23;;;4.70;;
7215;SDS011;3649;48.798;9.798;2022-07-29T01:12:15;5.23;;;4.73;;
7215;SDS011;3649;48.798;9.798;2022-07-29T01:14:45;5.57;;;4.77;;
7215;SDS011;3649;48.798;9.798;2022-07-29T01:17:16;4.80;;;4.43;;
7215;SDS011;3649;48.798;9.798;2022-07-29T01:20:15;6.40;;;4.80;;
7215;SDS011;3649;48.798;9.798;2022-07-29T01:29:22;6.20;;;4.60;;
7215;SDS011;3649;48.798;9.798;2022-07-29T01:32:07;6.33;;;4.53;;
7215;SDS011;3649;48.798;9.798;2022-07-29T01:40:11;8.47;;;5.77;;
7215;SDS011;3649;48.798;9.798;2022-07-29T01:42:48;7.07;;;5.93;;
7215;SDS011;3649;48.798;9.798;2022-07-29T01:45:20;5.43;;;4.93;;
7215;SDS011;3649;48.798;9.798;2022-07-29T01:47:54;7.60;;;4.90;;
7215;SDS011;3649;48.798;9.798;2022-07-29T01:50:52;5.43;;;4.90;;
7215;SDS011;3649;48.798;9.798;2022-07-29T01:53:36;5.70;;;4.87;;
7215;SDS011;3649;48.798;9.798;2022-07-29T01:56:08;9.50;;;5.70;;
7215;SDS011;3649;48.798;9.798;2022-07-29T01:58:38;7.43;;;4.70;;
7215;SDS011;3649;48.798;9.798;2022-07-29T02:01:08;4.13;;;3.73;;
7215;SDS011;3649;48.798;9.798;2022-07-29T02:03:37;5.07;;;4.60;;
7215;SDS011;3649;48.798;9.798;2022-07-29T02:06:09;4.23;;;3.83;;
7215;SDS011;3649;48.798;9.798;2022-07-29T02:08:38;4.47;;;4.07;;
7215;SDS011;3649;48.798;9.798;2022-07-29T02:11:06;4.33;;;3.60;;
7215;SDS011;3649;48.798;9.798;2022-07-29T02:13:35;3.90;;;3.60;;
7215;SDS011;3649;48.798;9.798;2022-07-29T02:16:04;3.87;;;3.57;;
7215;SDS011;3649;48.798;9.798;2022-07-29T02:18:33;3.67;;;3.30;;
7215;SDS011;3649;48.798;9.798;2022-07-29T02:21:02;5.83;;;3.50;;
7215;SDS011;3649;48.798;9.798;2022-07-29T02:23:30;3.77;;;3.47;;
7215;SDS011;3649;48.798;9.798;2022-07-29T02:26:16;4.70;;;3.03;;
7215;SDS011;3649;48.798;9.798;2022-07-29T02:28:45;4.73;;;4.33;;
7215;SDS011;3649;48.798;9.798;2022-07-29T02:31:13;4.47;;;3.83;;
7215;SDS011;3649;48.798;9.798;2022-07-29T02:33:42;3.63;;;3.33;;
7215;SDS011;3649;48.798;9.798;2022-07-29T02:36:11;4.47;;;4.07;;
7215;SDS011;3649;48.798;9.798;2022-07-29T02:38:39;4.47;;;4.07;;
7215;SDS011;3649;48.798;9.798;2022-07-29T02:41:26;4.87;;;4.47;;
7215;SDS011;3649;48.798;9.798;2022-07-29T02:44:02;4.97;;;4.40;;
7215;SDS011;3649;48.798;9.798;2022-07-29T02:46:33;7.67;;;4.77;;
7215;SDS011;3649;48.798;9.798;2022-07-29T02:49:15;6.27;;;4.30;;
7215;SDS011;3649;48.798;9.798;2022-07-29T02:51:58;8.60;;;4.73;;
7215;SDS011;3649;48.798;9.798;2022-07-29T02:57:33;5.33;;;4.90;;
7215;SDS011;3649;48.798;9.798;2022-07-29T03:00:21;5.60;;;4.43;;
7215;SDS011;3649;48.798;9.798;2022-07-29T03:02:51;4.83;;;4.43;;
7215;SDS011;3649;48.798;9.798;2022-07-29T03:05:21;7.80;;;4.80;;
7215;SDS011;3649;48.798;9.798;2022-07-29T03:07:51;5.43;;;4.80;;
7215;SDS011;3649;48.798;9.798;2022-07-29T03:10:26;5.30;;;4.80;;
7215;SDS011;3649;48.798;9.798;2022-07-29T03:12:55;6.13;;;4.30;;
7215;SDS011;3649;48.798;9.798;2022-07-29T03:15:24;5.83;;;4.83;;
7215;SDS011;3649;48.798;9.798;2022-07-29T03:17:53;6.47;;;4.40;;
7215;SDS011;3649;48.798;9.798;2022-07-29T03:20:22;5.40;;;4.90;;
7215;SDS011;3649;48.798;9.798;2022-07-29T03:22:49;5.43;;;5.00;;
7215;SDS011;3649;48.798;9.798;2022-07-29T03:25:18;5.73;;;4.83;;
7215;SDS011;3649;48.798;9.798;2022-07-29T03:27:46;6.50;;;5.20;;
7215;SDS011;3649;48.798;9.798;2022-07-29T03:30:14;5.27;;;4.87;;
7215;SDS011;3649;48.798;9.798;2022-07-29T03:32:47;7.13;;;5.20;;
7215;SDS011;3649;48.798;9.798;2022-07-29T03:35:17;5.80;;;5.17;;
7215;SDS011;3649;48.798;9.798;2022-07-29T03:37:47;7.93;;;5.27;;
7215;SDS011;3649;48.798;9.798;2022-07-29T03:40:17;5.90;;;5.40;;
7215;SDS011;3649;48.798;9.798;2022-07-29T03:42:48;5.50;;;4.40;;
7215;SDS011;3649;48.798;9.798;2022-07-29T03:45:18;5.20;;;4.73;;
7215;SDS011;3649;48.798;9.798;2022-07-29T03:47:47;6.47;;;4.93;;
7215;SDS011;3649;48.798;9.798;2022-07-29T03:50:25;7.70;;;4.73;;
7215;SDS011;3649;48.798;9.798;2022-07-29T03:52:52;5.10;;;4.60;;
7215;SDS011;3649;48.798;9.798;2022-07-29T03:55:19;5.37;;;4.97;;
7215;SDS011;3649;48.798;9.798;2022-07-29T03:57:46;5.30;;;4.80;;
7215;SDS011;3649;48.798;9.798;2022-07-29T04:00:15;7.13;;;5.73;;
7215;SDS011;3649;48.798;9.798;2022-07-29T04:02:43;4.80;;;4.40;;
7215;SDS011;3649;48.798;9.798;2022-07-29T04:05:14;8.50;;;5.00;;
7215;SDS011;3649;48.798;9.798;2022-07-29T04:07:45;8.73;;;4.63;;
7215;SDS011;3649;48.798;9.798;2022-07-29T04:10:13;9.23;;;5.17;;
7215;SDS011;3649;48.798;9.798;2022-07-29T04:12:56;5.67;;;4.40;;
7215;SDS011;3649;48.798;9.798;2022-07-29T04:15:24;5.93;;;5.00;;
7215;SDS011;3649;48.798;9.798;2022-07-29T04:17:56;8.13;;;4.97;;
7215;SDS011;3649;48.798;9.798;2022-07-29T04:20:23;7.30;;;4.60;;
7215;SDS011;3649;48.798;9.798;2022-07-29T04:22:50;9.03;;;4.67;;
7215;SDS011;3649;48.798;9.798;2022-07-29T04:25:16;5.07;;;4.57;;
7215;SDS011;3649;48.798;9.798;2022-07-29T04:27:43;6.13;;;5.37;;
7215;SDS011;3649;48.798;9.798;2022-07-29T04:30:30;6.43;;;5.83;;
7215;SDS011;3649;48.798;9.798;2022-07-29T04:32:58;6.10;;;4.67;;
7215;SDS011;3649;48.798;9.798;2022-07-29T04:35:27;5.60;;;5.20;;
7215;SDS011;3649;48.798;9.798;2022-07-29T04:37:55;6.93;;;5.20;;
7215;SDS011;3649;48.798;9.798;2022-07-29T04:40:22;7.43;;;5.73;;
7215;SDS011;3649;48.798;9.798;2022-07-29T04:42:49;6.17;;;5.27;;
7215;SDS011;3649;48.798;9.798;2022-07-29T04:45:15;10.17;;;5.30;;
7215;SDS011;3649;48.798;9.798;2022-07-29T04:47:47;5.90;;;5.30;;
7215;SDS011;3649;48.798;9.798;2022-07-29T04:50:15;7.50;;;5.33;;
7215;SDS011;3649;48.798;9.798;2022-07-29T04:52:41;6.27;;;5.33;;
7215;SDS011;3649;48.798;9.798;2022-07-29T04:55:08;6.40;;;5.80;;
7215;SDS011;3649;48.798;9.798;2022-07-29T04:57:35;5.93;;;5.37;;
7215;SDS011;3649;48.798;9.798;2022-07-29T05:00:04;9.60;;;6.23;;
7215;SDS011;3649;48.798;9.798;2022-07-29T05:02:31;5.87;;;5.27;;
7215;SDS011;3649;48.798;9.798;2022-07-29T05:04:58;7.07;;;5.27;;
7215;SDS011;3649;48.798;9.798;2022-07-29T05:07:25;7.60;;;5.37;;
7215;SDS011;3649;48.798;9.798;2022-07-29T05:09:52;5.40;;;4.90;;
7215;SDS011;3649;48.798;9.798;2022-07-29T05:12:19;5.03;;;4.33;;
7215;SDS011;3649;48.798;9.798;2022-07-29T05:14:46;6.33;;;4.50;;
7215;SDS011;3649;48.798;9.798;2022-07-29T05:17:13;7.20;;;4.20;;
7215;SDS011;3649;48.798;9.798;2022-07-29T05:19:39;5.37;;;4.43;;
7215;SDS011;3649;48.798;9.798;2022-07-29T05:22:06;7.10;;;4.33;;
7215;SDS011;3649;48.798;9.798;2022-07-29T05:24:33;9.73;;;4.83;;
7215;SDS011;3649;48.798;9.798;2022-07-29T05:27:00;8.87;;;5.13;;
7215;SDS011;3649;48.798;9.798;2022-07-29T05:29:27;5.50;;;4.77;;
7215;SDS011;3649;48.798;9.798;2022-07-29T05:32:11;6.23;;;4.87;;
7215;SDS011;3649;48.798;9.798;2022-07-29T05:34:38;6.93;;;6.17;;
7215;SDS011;3649;48.798;9.798;2022-07-29T05:37:17;7.23;;;5.97;;
7215;SDS011;3649;48.798;9.798;2022-07-29T05:39:45;6.70;;;5.73;;
7215;SDS011;3649;48.798;9.798;2022-07-29T05:42:15;6.67;;;5.97;;
7215;SDS011;3649;48.798;9.798;2022-07-29T05:44:42;7.63;;;5.83;;
7215;SDS011;3649;48.798;9.798;2022-07-29T05:47:09;9.33;;;6.27;;
7215;SDS011;3649;48.798;9.798;2022-07-29T05:49:36;8.17;;;5.93;;
7215;SDS011;3649;48.798;9.798;2022-07-29T05:52:03;6.30;;;5.80;;
7215;SDS011;3649;48.798;9.798;2022-07-29T05:54:30;6.17;;;5.67;;
7215;SDS011;3649;48.798;9.798;2022-07-29T05:56:57;6.50;;;5.93;;
7215;SDS011;3649;48.798;9.798;2022-07-29T05:59:24;8.47;;;5.70;;
7215;SDS011;3649;48.798;9.798;2022-07-29T06:01:55;7.43;;;5.50;;
7215;SDS011;3649;48.798;9.798;2022-07-29T06:04:23;8.27;;;5.30;;
7215;SDS011;3649;48.798;9.798;2022-07-29T06:06:50;6.20;;;5.67;;
7215;SDS011;3649;48.798;9.798;2022-07-29T06:09:17;6.00;;;5.40;;
7215;SDS011;3649;48.798;9.798;2022-07-29T06:11:45;6.57;;;5.87;;
7215;SDS011;3649;48.798;9.798;2022-07-29T06:14:12;8.77;;;5.90;;
7215;SDS011;3649;48.798;9.798;2022-07-29T06:16:39;7.17;;;6.00;;
7215;SDS011;3649;48.798;9.798;2022-07-29T06:19:07;6.60;;;6.00;;
7215;SDS011;3649;48.798;9.798;2022-07-29T06:21:34;6.70;;;6.07;;
7215;SDS011;3649;48.798;9.798;2022-07-29T06:24:07;7.57;;;6.10;;
7215;SDS011;3649;48.798;9.798;2022-07-29T06:26:35;8.30;;;5.97;;
7215;SDS011;3649;48.798;9.798;2022-07-29T06:29:05;6.80;;;6.20;;
7215;SDS011;3649;48.798;9.798;2022-07-29T06:31:32;6.67;;;5.90;;
7215;SDS011;3649;48.798;9.798;2022-07-29T06:33:59;5.10;;;4.70;;
7215;SDS011;3649;48.798;9.798;2022-07-29T06:36:28;8.00;;;5.23;;
7215;SDS011;3649;48.798;9.798;2022-07-29T06:38:55;4.97;;;4.50;;
7215;SDS011;3649;48.798;9.798;2022-07-29T06:41:23;8.73;;;5.27;;
7215;SDS011;3649;48.798;9.798;2022-07-29T06:43:50;5.83;;;5.10;;
7215;SDS011;3649;48.798;9.798;2022-07-29T06:46:22;5.83;;;5.13;;
7215;SDS011;3649;48.798;9.798;2022-07-29T06:48:49;8.73;;;5.40;;
7215;SDS011;3649;48.798;9.798;2022-07-29T06:51:18;6.23;;;5.20;;
7215;SDS011;3649;48.798;9.798;2022-07-29T06:53:48;6.50;;;5.90;;
7215;SDS011;3649;48.798;9.798;2022-07-29T06:56:29;8.40;;;4.93;;
7215;SDS011;3649;48.798;9.798;2022-07-29T06:59:05;9.33;;;6.47;;
7215;SDS011;3649;48.798;9.798;2022-07-29T07:01:40;6.33;;;5.37;;
7215;SDS011;3649;48.798;9.798;2022-07-29T07:04:09;7.90;;;4.67;;
7215;SDS011;3649;48.798;9.798;2022-07-29T07:06:38;5.47;;;4.40;;
7215;SDS011;3649;48.798;9.798;2022-07-29T07:09:05;4.47;;;4.07;;
7215;SDS011;3649;48.798;9.798;2022-07-29T07:11:32;6.47;;;4.80;;
7215;SDS011;3649;48.798;9.798;2022-07-29T07:14:00;4.40;;;4.00;;
7215;SDS011;3649;48.798;9.798;2022-07-29T07:16:29;5.13;;;4.30;;
7215;SDS011;3649;48.798;9.798;2022-07-29T07:18:57;4.33;;;3.90;;
7215;SDS011;3649;48.798;9.798;2022-07-29T07:21:24;4.03;;;3.63;;
7215;SDS011;3649;48.798;9.798;2022-07-29T07:23:55;6.53;;;4.17;;
7215;SDS011;3649;48.798;9.798;2022-07-29T07:26:22;9.50;;;4.37;;
7215;SDS011;3649;48.798;9.798;2022-07-29T07:28:49;8.00;;;4.30;;
7215;SDS011;3649;48.798;9.798;2022-07-29T07:31:16;7.27;;;4.70;;
7215;SDS011;3649;48.798;9.798;2022-07-29T07:33:43;5.80;;;4.93;;
7215;SDS011;3649;48.798;9.798;2022-07-29T07:36:10;7.37;;;5.10;;
7215;SDS011;3649;48.798;9.798;2022-07-29T07:38:37;4.00;;;3.53;;
7215;SDS011;3649;48.798;9.798;2022-07-29T07:41:04;5.73;;;3.50;;
7215;SDS011;3649;48.798;9.798;2022-07-29T07:43:31;3.93;;;3.63;;
7215;SDS011;3649;48.798;9.798;2022-07-29T07:45:58;4.30;;;3.90;;
7215;SDS011;3649;48.798;9.798;2022-07-29T07:48:25;6.80;;;4.23;;
7215;SDS011;3649;48.798;9.798;2022-07-29T07:50:52;5.47;;;4.10;;
7215;SDS011;3649;48.798;9.798;2022-07-29T07:53:20;7.90;;;3.97;;
7215;SDS011;3649;48.798;9.798;2022-07-29T07:55:47;4.37;;;3.67;;
7215;SDS011;3649;48.798;9.798;2022-07-29T07:58:34;3.97;;;3.63;;
7215;SDS011;3649;48.798;9.798;2022-07-29T08:01:02;3.70;;;2.83;;
7215;SDS011;3649;48.798;9.798;2022-07-29T08:03:29;4.10;;;3.53;;
7215;SDS011;3649;48.798;9.798;2022-07-29T08:05:56;4.17;;;3.20;;
7215;SDS011;3649;48.798;9.798;2022-07-29T08:08:23;4.63;;;3.30;;
7215;SDS011;3649;48.798;9.798;2022-07-29T08:10:50;3.13;;;2.93;;
7215;SDS011;3649;48.798;9.798;2022-07-29T08:13:22;4.97;;;3.03;;
7215;SDS011;3649;48.798;9.798;2022-07-29T08:15:51;4.53;;;3.07;;
7215;SDS011;3649;48.798;9.798;2022-07-29T08:18:27;4.43;;;2.93;;
7215;SDS011;3649;48.798;9.798;2022-07-29T08:20:55;8.43;;;3.67;;
7215;SDS011;3649;48.798;9.798;2022-07-29T08:23:23;4.33;;;3.03;;
7215;SDS011;3649;48.798;9.798;2022-07-29T08:26:14;4.03;;;2.63;;
7215;SDS011;3649;48.798;9.798;2022-07-29T08:28:44;3.90;;;2.47;;
7215;SDS011;3649;48.798;9.798;2022-07-29T08:31:17;3.27;;;2.50;;
7215;SDS011;3649;48.798;9.798;2022-07-29T08:33:46;2.53;;;2.33;;
7215;SDS011;3649;48.798;9.798;2022-07-29T08:36:13;2.20;;;2.10;;
7215;SDS011;3649;48.798;9.798;2022-07-29T08:38:41;5.17;;;2.60;;
7215;SDS011;3649;48.798;9.798;2022-07-29T08:41:08;3.67;;;2.50;;
7215;SDS011;3649;48.798;9.798;2022-07-29T08:43:36;2.83;;;2.63;;
7215;SDS011;3649;48.798;9.798;2022-07-29T08:46:08;2.40;;;2.20;;
7215;SDS011;3649;48.798;9.798;2022-07-29T08:48:36;3.13;;;2.50;;
7215;SDS011;3649;48.798;9.798;2022-07-29T08:51:03;4.63;;;2.40;;
7215;SDS011;3649;48.798;9.798;2022-07-29T08:53:31;4.27;;;2.23;;
7215;SDS011;3649;48.798;9.798;2022-07-29T08:55:59;4.20;;;2.57;;
7215;SDS011;3649;48.798;9.798;2022-07-29T08:58:26;2.90;;;2.20;;
7215;SDS011;3649;48.798;9.798;2022-07-29T09:01:02;4.13;;;2.40;;
7215;SDS011;3649;48.798;9.798;2022-07-29T09:03:34;4.20;;;2.60;;
7215;SDS011;3649;48.798;9.798;2022-07-29T09:06:03;5.07;;;1.97;;
7215;SDS011;3649;48.798;9.798;2022-07-29T09:08:31;3.67;;;2.83;;
7215;SDS011;3649;48.798;9.798;2022-07-29T09:11:00;5.23;;;2.90;;
7215;SDS011;3649;48.798;9.798;2022-07-29T09:13:29;2.63;;;2.43;;
7215;SDS011;3649;48.798;9.798;2022-07-29T09:15:56;2.70;;;2.33;;
7215;SDS011;3649;48.798;9.798;2022-07-29T09:18:37;3.50;;;2.30;;
7215;SDS011;3649;48.798;9.798;2022-07-29T09:21:06;3.70;;;2.50;;
7215;SDS011;3649;48.798;9.798;2022-07-29T09:23:59;2.93;;;2.73;;
7215;SDS011;3649;48.798;9.798;2022-07-29T09:26:29;4.20;;;2.83;;
7215;SDS011;3649;48.798;9.798;2022-07-29T09:28:57;3.70;;;2.33;;
7215;SDS011;3649;48.798;9.798;2022-07-29T09:31:44;7.10;;;2.70;;
7215;SDS011;3649;48.798;9.798;2022-07-29T09:34:13;3.00;;;2.80;;
7215;SDS011;3649;48.798;9.798;2022-07-29T09:36:42;2.73;;;2.63;;
7215;SDS011;3649;48.798;9.798;2022-07-29T09:39:14;6.03;;;2.83;;
7215;SDS011;3649;48.798;9.798;2022-07-29T09:44:13;3.10;;;2.60;;
7215;SDS011;3649;48.798;9.798;2022-07-29T09:46:58;4.17;;;2.60;;
7215;SDS011;3649;48.798;9.798;2022-07-29T09:49:34;5.40;;;3.10;;
7215;SDS011;3649;48.798;9.798;2022-07-29T09:52:09;7.27;;;2.90;;
7215;SDS011;3649;48.798;9.798;2022-07-29T09:54:37;3.47;;;2.63;;
7215;SDS011;3649;48.798;9.798;2022-07-29T09:57:05;2.90;;;2.70;;
7215;SDS011;3649;48.798;9.798;2022-07-29T09:59:35;3.00;;;2.80;;
7215;SDS011;3649;48.798;9.798;2022-07-29T10:02:15;2.93;;;2.70;;
7215;SDS011;3649;48.798;9.798;2022-07-29T10:04:48;6.40;;;3.00;;
7215;SDS011;3649;48.798;9.798;2022-07-29T10:07:15;3.13;;;2.87;;
7215;SDS011;3649;48.798;9.798;2022-07-29T10:09:49;3.00;;;2.80;;
7215;SDS011;3649;48.798;9.798;2022-07-29T10:12:20;4.77;;;2.67;;
7215;SDS011;3649;48.798;9.798;2022-07-29T10:14:48;3.33;;;2.83;;
7215;SDS011;3649;48.798;9.798;2022-07-29T10:17:16;3.80;;;2.83;;
7215;SDS011;3649;48.798;9.798;2022-07-29T10:19:45;3.43;;;3.03;;
7215;SDS011;3649;48.798;9.798;2022-07-29T10:22:13;3.70;;;3.40;;
7215;SDS011;3649;48.798;9.798;2022-07-29T10:24:40;5.63;;;2.93;;
7215;SDS011;3649;48.798;9.798;2022-07-29T10:27:07;2.97;;;2.77;;
7215;SDS011;3649;48.798;9.798;2022-07-29T10:29:35;5.53;;;3.20;;
7215;SDS011;3649;48.798;9.798;2022-07-29T10:43:23;3.30;;;2.93;;
7215;SDS011;3649;48.798;9.798;2022-07-29T10:45:58;5.27;;;3.40;;
7215;SDS011;3649;48.798;9.798;2022-07-29T10:48:26;3.37;;;2.80;;
7215;SDS011;3649;48.798;9.798;2022-07-29T10:50:54;6.07;;;3.80;;
7215;SDS011;3649;48.798;9.798;2022-07-29T10:53:45;3.90;;;3.30;;
7215;SDS011;3649;48.798;9.798;2022-07-29T11:01:47;3.77;;;3.57;;
7215;SDS011;3649;48.798;9.798;2022-07-29T11:07:13;5.23;;;3.80;;
7215;SDS011;3649;48.798;9.798;2022-07-29T11:09:42;3.87;;;3.57;;
7215;SDS011;3649;48.798;9.798;2022-07-29T11:15:05;4.77;;;3.40;;
7215;SDS011;3649;48.798;9.798;2022-07-29T11:47:54;4.67;;;3.40;;
7215;SDS011;3649;48.798;9.798;2022-07-29T11:50:44;6.20;;;3.33;;
7215;SDS011;3649;48.798;9.798;2022-07-29T11:53:13;4.23;;;3.47;;
7215;SDS011;3649;48.798;9.798;2022-07-29T11:55:41;4.97;;;3.47;;
7215;SDS011;3649;48.798;9.798;2022-07-29T11:58:21;4.80;;;3.73;;
7215;SDS011;3649;48.798;9.798;2022-07-29T12:00:51;3.73;;;3.43;;
7215;SDS011;3649;48.798;9.798;2022-07-29T12:03:28;5.87;;;3.93;;
7215;SDS011;3649;48.798;9.798;2022-07-29T12:06:15;4.43;;;3.93;;
7215;SDS011;3649;48.798;9.798;2022-07-29T12:08:44;3.90;;;3.50;;
7215;SDS011;3649;48.798;9.798;2022-07-29T12:11:15;6.23;;;3.40;;
7215;SDS011;3649;48.798;9.798;2022-07-29T12:13:48;5.07;;;3.50;;
7215;SDS011;3649;48.798;9.798;2022-07-29T12:16:16;6.37;;;4.13;;
7215;SDS011;3649;48.798;9.798;2022-07-29T12:19:12;6.50;;;4.00;;
7215;SDS011;3649;48.798;9.798;2022-07-29T12:21:46;5.90;;;3.87;;
7215;SDS011;3649;48.798;9.798;2022-07-29T12:24:21;5.63;;;5.13;;
7215;SDS011;3649;48.798;9.798;2022-07-29T12:26:56;3.87;;;3.57;;
7215;SDS011;3649;48.798;9.798;2022-07-29T12:29:24;4.33;;;3.60;;
7215;SDS011;3649;48.798;9.798;2022-07-29T12:32:01;4.43;;;4.00;;
7215;SDS011;3649;48.798;9.798;2022-07-29T12:34:29;5.97;;;3.83;;
7215;SDS011;3649;48.798;9.798;2022-07-29T12:36:57;5.10;;;3.77;;
7215;SDS011;3649;48.798;9.798;2022-07-29T12:39:24;4.80;;;4.17;;
7215;SDS011;3649;48.798;9.798;2022-07-29T12:41:54;5.83;;;4.07;;
7215;SDS011;3649;48.798;9.798;2022-07-29T12:44:45;3.80;;;3.43;;
7215;SDS011;3649;48.798;9.798;2022-07-29T12:47:14;5.70;;;4.33;;
7215;SDS011;3649;48.798;9.798;2022-07-29T12:49:41;5.20;;;3.60;;
7215;SDS011;3649;48.798;9.798;2022-07-29T12:54:58;6.77;;;4.53;;
7215;SDS011;3649;48.798;9.798;2022-07-29T12:57:25;4.87;;;4.43;;
7215;SDS011;3649;48.798;9.798;2022-07-29T12:59:58;3.90;;;3.57;;
7215;SDS011;3649;48.798;9.798;2022-07-29T13:02:37;8.87;;;4.50;;
7215;SDS011;3649;48.798;9.798;2022-07-29T13:05:05;8.07;;;3.90;;
7215;SDS011;3649;48.798;9.798;2022-07-29T13:07:34;4.17;;;3.87;;
7215;SDS011;3649;48.798;9.798;2022-07-29T13:10:21;7.40;;;4.57;;
7215;SDS011;3649;48.798;9.798;2022-07-29T13:13:05;8.07;;;4.77;;
7215;SDS011;3649;48.798;9.798;2022-07-29T13:15:39;5.23;;;4.73;;
7215;SDS011;3649;48.798;9.798;2022-07-29T13:21:12;9.90;;;4.93;;
7215;SDS011;3649;48.798;9.798;2022-07-29T13:23:41;5.60;;;4.60;;
7215;SDS011;3649;48.798;9.798;2022-07-29T13:26:09;5.93;;;4.20;;
7215;SDS011;3649;48.798;9.798;2022-07-29T13:28:37;4.77;;;4.17;;
7215;SDS011;3649;48.798;9.798;2022-07-29T13:31:04;5.50;;;4.63;;
7215;SDS011;3649;48.798;9.798;2022-07-29T13:33:32;4.63;;;4.13;;
7215;SDS011;3649;48.798;9.798;2022-07-29T13:35:58;5.97;;;3.77;;
7215;SDS011;3649;48.798;9.798;2022-07-29T13:38:25;8.30;;;4.23;;
7215;SDS011;3649;48.798;9.798;2022-07-29T13:40:56;5.07;;;3.70;;
7215;SDS011;3649;48.798;9.798;2022-07-29T13:43:24;4.40;;;4.00;;
7215;SDS011;3649;48.798;9.798;2022-07-29T13:45:51;8.60;;;4.00;;
7215;SDS011;3649;48.798;9.798;2022-07-29T13:48:18;4.80;;;3.63;;
7215;SDS011;3649;48.798;9.798;2022-07-29T13:50:45;6.77;;;3.20;;
7215;SDS011;3649;48.798;9.798;2022-07-29T13:53:12;4.53;;;3.10;;
7215;SDS011;3649;48.798;9.798;2022-07-29T13:55:43;3.10;;;2.80;;
7215;SDS011;3649;48.798;9.798;2022-07-29T13:58:11;3.13;;;2.87;;
7215;SDS011;3649;48.798;9.798;2022-07-29T14:00:38;3.77;;;3.30;;
7215;SDS011;3649;48.798;9.798;2022-07-29T14:03:04;2.53;;;2.33;;
7215;SDS011;3649;48.798;9.798;2022-07-29T14:05:32;2.73;;;2.17;;
7215;SDS011;3649;48.798;9.798;2022-07-29T14:08:00;1.80;;;1.70;;
7215;SDS011;3649;48.798;9.798;2022-07-29T14:10:27;2.53;;;2.33;;
7215;SDS011;3649;48.798;9.798;2022-07-29T14:12:54;1.90;;;1.80;;
7215;SDS011;3649;48.798;9.798;2022-07-29T14:15:21;2.00;;;1.90;;
7215;SDS011;3649;48.798;9.798;2022-07-29T14:17:48;3.70;;;1.90;;
7215;SDS011;3649;48.798;9.798;2022-07-29T14:20:15;1.90;;;1.80;;
7215;SDS011;3649;48.798;9.798;2022-07-29T14:22:45;2.03;;;1.90;;
7215;SDS011;3649;48.798;9.798;2022-07-29T14:25:12;2.73;;;1.90;;
7215;SDS011;3649;48.798;9.798;2022-07-29T14:27:41;2.40;;;2.20;;
7215;SDS011;3649;48.798;9.798;2022-07-29T14:30:10;3.47;;;1.93;;
7215;SDS011;3649;48.798;9.798;2022-07-29T14:32:37;2.23;;;2.03;;
7215;SDS011;3649;48.798;9.798;2022-07-29T14:35:04;2.57;;;2.13;;
7215;SDS011;3649;48.798;9.798;2022-07-29T14:37:32;2.70;;;2.13;;
7215;SDS011;3649;48.798;9.798;2022-07-29T14:40:05;3.57;;;2.27;;
7215;SDS011;3649;48.798;9.798;2022-07-29T14:42:33;2.57;;;2.37;;
7215;SDS011;3649;48.798;9.798;2022-07-29T14:45:00;4.90;;;2.70;;
7215;SDS011;3649;48.798;9.798;2022-07-29T14:47:27;5.27;;;2.33;;
7215;SDS011;3649;48.798;9.798;2022-07-29T14:49:54;3.90;;;2.53;;
7215;SDS011;3649;48.798;9.798;2022-07-29T14:52:21;2.40;;;2.20;;
7215;SDS011;3649;48.798;9.798;2022-07-29T14:54:48;2.30;;;2.10;;
7215;SDS011;3649;48.798;9.798;2022-07-29T14:57:15;2.33;;;2.20;;
7215;SDS011;3649;48.798;9.798;2022-07-29T14:59:42;2.10;;;2.00;;
7215;SDS011;3649;48.798;9.798;2022-07-29T15:02:09;3.23;;;2.33;;
7215;SDS011;3649;48.798;9.798;2022-07-29T15:04:36;2.70;;;2.50;;
7215;SDS011;3649;48.798;9.798;2022-07-29T15:07:04;3.43;;;2.53;;
7215;SDS011;3649;48.798;9.798;2022-07-29T15:09:31;2.20;;;2.10;;
7215;SDS011;3649;48.798;9.798;2022-07-29T15:12:05;2.67;;;2.47;;
7215;SDS011;3649;48.798;9.798;2022-07-29T15:14:32;4.27;;;2.50;;
7215;SDS011;3649;48.798;9.798;2022-07-29T15:16:59;2.80;;;2.60;;
7215;SDS011;3649;48.798;9.798;2022-07-29T15:19:29;3.33;;;2.50;;
7215;SDS011;3649;48.798;9.798;2022-07-29T15:21:56;2.40;;;2.20;;
7215;SDS011;3649;48.798;9.798;2022-07-29T15:24:25;3.20;;;2.30;;
7215;SDS011;3649;48.798;9.798;2022-07-29T15:26:51;2.70;;;2.50;;
7215;SDS011;3649;48.798;9.798;2022-07-29T15:29:18;4.33;;;2.70;;
7215;SDS011;3649;48.798;9.798;2022-07-29T15:31:46;4.43;;;2.60;;
7215;SDS011;3649;48.798;9.798;2022-07-29T15:34:13;4.13;;;2.60;;
7215;SDS011;3649;48.798;9.798;2022-07-29T15:36:40;4.27;;;2.60;;
7215;SDS011;3649;48.798;9.798;2022-07-29T15:39:18;3.00;;;2.70;;
7215;SDS011;3649;48.798;9.798;2022-07-29T15:41:46;4.10;;;2.30;;
7215;SDS011;3649;48.798;9.798;2022-07-29T15:44:13;2.67;;;2.47;;
7215;SDS011;3649;48.798;9.798;2022-07-29T15:46:40;2.63;;;2.20;;
7215;SDS011;3649;48.798;9.798;2022-07-29T15:49:26;2.87;;;2.30;;
7215;SDS011;3649;48.798;9.798;2022-07-29T15:52:15;3.00;;;2.50;;
7215;SDS011;3649;48.798;9.798;2022-07-29T15:54:50;3.40;;;2.20;;
7215;SDS011;3649;48.798;9.798;2022-07-29T15:57:17;2.37;;;2.17;;
7215;SDS011;3649;48.798;9.798;2022-07-29T15:59:44;3.73;;;2.43;;
7215;SDS011;3649;48.798;9.798;2022-07-29T16:02:11;5.90;;;2.83;;
7215;SDS011;3649;48.798;9.798;2022-07-29T16:04:38;3.73;;;2.47;;
7215;SDS011;3649;48.798;9.798;2022-07-29T16:07:05;3.63;;;2.57;;
7215;SDS011;3649;48.798;9.798;2022-07-29T16:09:32;3.40;;;3.10;;
7215;SDS011;3649;48.798;9.798;2022-07-29T16:11:59;2.80;;;2.60;;
7215;SDS011;3649;48.798;9.798;2022-07-29T16:14:27;2.97;;;2.70;;
7215;SDS011;3649;48.798;9.798;2022-07-29T16:16:54;4.53;;;2.40;;
7215;SDS011;3649;48.798;9.798;2022-07-29T16:19:22;2.67;;;2.47;;
7215;SDS011;3649;48.798;9.798;2022-07-29T16:21:48;3.67;;;3.00;;
7215;SDS011;3649;48.798;9.798;2022-07-29T16:24:15;3.70;;;2.90;;
7215;SDS011;3649;48.798;9.798;2022-07-29T16:26:43;6.17;;;2.63;;
7215;SDS011;3649;48.798;9.798;2022-07-29T16:29:10;3.10;;;2.80;;
7215;SDS011;3649;48.798;9.798;2022-07-29T16:31:37;2.87;;;2.70;;
7215;SDS011;3649;48.798;9.798;2022-07-29T16:34:04;2.83;;;2.63;;
7215;SDS011;3649;48.798;9.798;2022-07-29T16:36:30;3.30;;;2.40;;
7215;SDS011;3649;48.798;9.798;2022-07-29T16:38:57;4.03;;;2.77;;
7215;SDS011;3649;48.798;9.798;2022-07-29T16:41:25;2.60;;;2.40;;
7215;SDS011;3649;48.798;9.798;2022-07-29T16:43:52;2.97;;;2.63;;
7215;SDS011;3649;48.798;9.798;2022-07-29T16:46:20;4.20;;;2.87;;
7215;SDS011;3649;48.798;9.798;2022-07-29T16:48:49;3.60;;;2.70;;
7215;SDS011;3649;48.798;9.798;2022-07-29T16:51:16;5.17;;;2.90;;